Time;durP1;ratioP1;P1;durP2;ratioP2;P2;SDS_P1;SDS_P2;PMS_P1;PMS_P2;Temp;Humidity;BMP_temperature;BMP_pressure;BME280_temperature;BME280_humidity;BME280_pressure;Samples;Min_cycle;Max_cycle;Signal;HPM_P1;HPM_P2
2021/12/23 00:00:45;;;;;;;;;;;-3.60;92.80;;;;;;4966273;29;19906;-72
2021/12/23 00:03:11;;;;;;;;;;;-3.60;92.80;;;;;;4967167;28;19953;-72
2021/12/23 00:05:36;;;;;;;;;;;-3.60;92.80;;;;;;4966951;29;19969;-72
2021/12/23 00:08:02;;;;;;;;;;;-3.60;92.70;;;;;;4966959;29;19977;-72
2021/12/23 00:10:28;;;;;;;;;;;-3.60;92.70;;;;;;4967128;28;19913;-72
2021/12/23 00:12:54;;;;;;;;;;;-3.60;92.90;;;;;;4967012;28;19906;-73
2021/12/23 00:18:01;;;;;;;;;;;-3.60;92.70;;;;;;4966126;29;19906;-72
2021/12/23 00:25:49;;;;;;;;;;;-3.60;92.80;;;;;;4966722;29;19912;-73
2021/12/23 00:28:15;;;;;;;;;;;-3.60;92.80;;;;;;4965849;29;19929;-73
2021/12/23 00:30:40;;;;;;;;;;;-3.60;92.80;;;;;;4965870;29;19969;-72
2021/12/23 00:33:06;;;;;;;;;;;-3.60;92.90;;;;;;4966763;28;19930;-73
2021/12/23 00:35:32;;;;;;;;;;;-3.70;92.90;;;;;;4966576;28;20264;-73
2021/12/23 00:38:06;;;;;;;;;;;-3.80;93.10;;;;;;4966745;28;20248;-72
2021/12/23 00:40:31;;;;;;;;;;;-3.70;93.00;;;;;;4965751;29;20537;-72
2021/12/23 00:42:57;;;;;;;;;;;-3.70;92.80;;;;;;4966721;28;19908;-72
2021/12/23 00:45:24;;;;;;;;;;;-3.60;92.90;;;;;;4966307;28;19929;-72
2021/12/23 00:47:49;;;;;;;;;;;-3.70;93.00;;;;;;4966666;28;19910;-72
2021/12/23 00:50:15;;;;;;;;;;;-3.70;93.20;;;;;;4965398;29;19947;-72
2021/12/23 00:52:41;;;;;;;;;;;-3.60;93.10;;;;;;4966014;28;19956;-72
2021/12/23 00:55:09;;;;;;;;;;;-3.60;93.00;;;;;;4966008;28;19906;-72
2021/12/23 00:57:39;;;;;;;;;;;-3.50;92.70;;;;;;4965464;29;19906;-73
2021/12/23 01:00:09;;;;;;;;;;;-3.40;92.40;;;;;;4965214;28;19910;-74
2021/12/23 01:02:35;;;;;;;;;;;-3.50;92.60;;;;;;4965075;28;19907;-73
2021/12/23 01:05:02;;;;;;;;;;;-3.40;92.70;;;;;;4964845;29;19913;-73
2021/12/23 01:07:28;;;;;;;;;;;-3.40;92.70;;;;;;4964788;29;19929;-72
2021/12/23 01:09:54;;;;;;;;;;;-3.40;92.80;;;;;;4966086;28;20197;-72
2021/12/23 01:12:25;;;;;;;;;;;-3.40;92.70;;;;;;4964851;28;19907;-72
2021/12/23 01:15:09;;;;;;;;;;;-3.30;92.70;;;;;;4964696;29;19925;-72
2021/12/23 01:17:53;;;;;;;;;;;-3.20;92.10;;;;;;4964990;29;19914;-72
2021/12/23 01:20:26;;;;;;;;;;;-3.20;91.80;;;;;;4964907;28;19956;-72
2021/12/23 01:22:57;;;;;;;;;;;-3.10;92.00;;;;;;4964473;28;19906;-72
2021/12/23 01:25:23;;;;;;;;;;;-3.10;91.80;;;;;;4963622;29;19906;-71
2021/12/23 01:27:49;;;;;;;;;;;-3.00;91.60;;;;;;4948767;28;20220;-72
2021/12/23 01:30:17;;;;;;;;;;;-3.10;91.40;;;;;;4948723;29;19929;-72
2021/12/23 01:32:44;;;;;;;;;;;-3.10;91.70;;;;;;4980561;28;19913;-72
2021/12/23 01:35:10;;;;;;;;;;;-3.10;91.80;;;;;;4965414;28;19921;-72
2021/12/23 01:37:35;;;;;;;;;;;-3.10;91.90;;;;;;4965555;28;19910;-71
2021/12/23 01:40:01;;;;;;;;;;;-3.10;91.70;;;;;;4965370;28;19942;-72
2021/12/23 01:42:27;;;;;;;;;;;-3.00;91.60;;;;;;4964345;28;19955;-71
2021/12/23 01:44:53;;;;;;;;;;;-3.10;91.70;;;;;;4965248;28;19911;-71
2021/12/23 01:47:19;;;;;;;;;;;-3.10;91.90;;;;;;4965399;28;19974;-71
2021/12/23 01:49:44;;;;;;;;;;;-3.10;92.00;;;;;;4965388;28;19910;-71
2021/12/23 01:52:10;;;;;;;;;;;-3.20;91.90;;;;;;4965126;28;19910;-71
2021/12/23 01:54:38;;;;;;;;;;;-3.10;91.90;;;;;;4963906;29;19997;-72
2021/12/23 01:57:04;;;;;;;;;;;-3.10;91.60;;;;;;4963884;29;19941;-72
2021/12/23 01:59:32;;;;;;;;;;;-3.00;91.40;;;;;;4964020;29;19933;-71
2021/12/23 02:01:58;;;;;;;;;;;-3.00;91.40;;;;;;4965284;28;20150;-71
2021/12/23 02:04:23;;;;;;;;;;;-3.00;91.40;;;;;;4947690;29;19950;-72
2021/12/23 02:06:49;;;;;;;;;;;-3.00;91.40;;;;;;4963435;29;19907;-72
2021/12/23 02:09:15;;;;;;;;;;;-3.00;91.50;;;;;;4964992;28;19910;-72
2021/12/23 02:11:41;;;;;;;;;;;-2.90;91.40;;;;;;4964340;28;19906;-71
2021/12/23 02:14:07;;;;;;;;;;;-3.00;91.50;;;;;;4947926;29;19937;-72
2021/12/23 02:16:33;;;;;;;;;;;-3.10;91.80;;;;;;4947848;29;19993;-72
2021/12/23 02:18:58;;;;;;;;;;;-3.20;92.00;;;;;;4963797;29;19910;-72
2021/12/23 02:21:24;;;;;;;;;;;-3.20;92.00;;;;;;4979763;28;19929;-72
2021/12/23 02:23:50;;;;;;;;;;;-3.10;92.20;;;;;;4964434;28;19929;-72
2021/12/23 02:26:16;;;;;;;;;;;-3.00;92.00;;;;;;4962309;29;19906;-71
2021/12/23 02:28:41;;;;;;;;;;;-3.00;91.70;;;;;;4964498;28;19941;-71
2021/12/23 02:31:07;;;;;;;;;;;-3.00;91.60;;;;;;4963838;29;19910;-70
2021/12/23 02:33:34;;;;;;;;;;;-3.00;91.50;;;;;;4963651;29;19910;-70
2021/12/23 02:36:00;;;;;;;;;;;-3.00;91.70;;;;;;4963318;28;19906;-70
2021/12/23 02:38:25;;;;;;;;;;;-3.00;91.50;;;;;;4947599;29;19913;-70
2021/12/23 02:40:51;;;;;;;;;;;-2.90;91.40;;;;;;4964484;28;19975;-70
2021/12/23 02:43:25;;;;;;;;;;;-3.00;91.50;;;;;;4963579;29;19906;-70
2021/12/23 02:45:53;;;;;;;;;;;-3.00;91.60;;;;;;4947631;29;19914;-70
2021/12/23 02:48:21;;;;;;;;;;;-3.00;91.50;;;;;;4947770;29;19906;-70
2021/12/23 02:50:48;;;;;;;;;;;-3.00;91.50;;;;;;4964675;28;19907;-70
2021/12/23 02:53:14;;;;;;;;;;;-3.00;91.60;;;;;;4997578;23;19922;-71
2021/12/23 02:55:40;;;;;;;;;;;-3.00;91.70;;;;;;4993997;28;20085;-71
2021/12/23 02:58:06;;;;;;;;;;;-3.00;91.70;;;;;;5003373;28;19959;-71
2021/12/23 03:00:32;;;;;;;;;;;-3.00;91.70;;;;;;5002088;28;19910;-74
2021/12/23 03:02:58;;;;;;;;;;;-3.00;91.80;;;;;;4994437;28;19906;-72
2021/12/23 03:05:24;;;;;;;;;;;-3.00;91.80;;;;;;4983707;28;19934;-71
2021/12/23 03:07:49;;;;;;;;;;;-3.00;91.90;;;;;;4983684;28;20180;-71
2021/12/23 03:10:15;;;;;;;;;;;-3.00;92.00;;;;;;4983846;28;19906;-72
2021/12/23 03:12:41;;;;;;;;;;;-2.90;92.00;;;;;;4983772;28;20000;-72
2021/12/23 03:15:07;;;;;;;;;;;-3.00;92.10;;;;;;4983441;28;20198;-72
2021/12/23 03:17:33;;;;;;;;;;;-3.00;92.30;;;;;;4983972;28;19906;-73
2021/12/23 03:19:58;;;;;;;;;;;-3.10;92.50;;;;;;4966505;28;20017;-72
2021/12/23 03:22:24;;;;;;;;;;;-3.20;92.70;;;;;;4981631;28;19928;-71
2021/12/23 03:24:50;;;;;;;;;;;-3.20;92.80;;;;;;4966617;28;19937;-71
2021/12/23 03:27:16;;;;;;;;;;;-3.20;92.90;;;;;;4966838;28;19913;-72
2021/12/23 03:29:41;;;;;;;;;;;-3.20;92.80;;;;;;4968194;28;19981;-71
2021/12/23 03:32:07;;;;;;;;;;;-3.20;93.00;;;;;;4968150;28;19907;-72
2021/12/23 03:34:33;;;;;;;;;;;-3.20;93.40;;;;;;4967760;28;19906;-71
2021/12/23 03:36:58;;;;;;;;;;;-3.20;93.00;;;;;;4968030;29;19906;-71
2021/12/23 03:39:24;;;;;;;;;;;-3.10;93.00;;;;;;4950729;29;20273;-71
2021/12/23 03:41:50;;;;;;;;;;;-3.10;92.80;;;;;;4966709;29;19914;-71
2021/12/23 03:44:16;;;;;;;;;;;-3.10;92.90;;;;;;4966183;28;19906;-71
2021/12/23 03:46:41;;;;;;;;;;;-3.10;92.90;;;;;;4967652;29;19922;-71
2021/12/23 03:49:07;;;;;;;;;;;-3.10;92.80;;;;;;4966448;29;19910;-72
2021/12/23 03:51:33;;;;;;;;;;;-3.10;92.70;;;;;;4967561;29;19914;-72
2021/12/23 03:53:59;;;;;;;;;;;-3.10;92.80;;;;;;4967104;28;19965;-72
2021/12/23 03:56:24;;;;;;;;;;;-3.10;92.80;;;;;;4966150;29;19914;-72
2021/12/23 03:58:50;;;;;;;;;;;-3.00;92.50;;;;;;4967379;28;19913;-72
2021/12/23 04:01:16;;;;;;;;;;;-2.90;92.40;;;;;;4967472;28;20079;-72
2021/12/23 04:03:42;;;;;;;;;;;-2.90;92.30;;;;;;4966282;28;19906;-72
2021/12/23 04:06:08;;;;;;;;;;;-2.90;92.30;;;;;;4966071;28;19963;-72
2021/12/23 04:08:33;;;;;;;;;;;-2.90;92.30;;;;;;4982175;28;19969;-71
2021/12/23 04:11:00;;;;;;;;;;;-3.00;92.50;;;;;;4967265;28;19971;-71
2021/12/23 04:13:26;;;;;;;;;;;-3.10;92.60;;;;;;4967181;28;20003;-71
2021/12/23 04:15:52;;;;;;;;;;;-3.10;92.90;;;;;;4966905;28;19906;-71
2021/12/23 04:18:17;;;;;;;;;;;-3.10;92.80;;;;;;4966028;29;19949;-72
2021/12/23 04:20:53;;;;;;;;;;;-3.20;93.00;;;;;;4966067;29;19907;-72
2021/12/23 04:23:29;;;;;;;;;;;-3.20;93.20;;;;;;4966917;28;19929;-71
2021/12/23 04:25:55;;;;;;;;;;;-3.20;93.00;;;;;;4965093;28;19906;-71
2021/12/23 04:28:21;;;;;;;;;;;-3.30;93.20;;;;;;4966951;28;19953;-72
2021/12/23 04:30:47;;;;;;;;;;;-3.40;93.50;;;;;;4967139;28;19910;-72
2021/12/23 04:33:12;;;;;;;;;;;-3.40;93.60;;;;;;4965796;28;20102;-72
2021/12/23 04:35:38;;;;;;;;;;;-3.50;93.70;;;;;;4966043;28;19913;-73
2021/12/23 04:38:04;;;;;;;;;;;-3.40;93.50;;;;;;4966512;29;19906;-72
2021/12/23 04:40:30;;;;;;;;;;;-3.40;93.50;;;;;;4965448;29;20117;-72
2021/12/23 04:42:57;;;;;;;;;;;-3.30;93.50;;;;;;4966546;28;19906;-72
2021/12/23 04:45:22;;;;;;;;;;;-3.30;93.30;;;;;;4965290;29;20260;-72
2021/12/23 04:47:48;;;;;;;;;;;-3.30;93.30;;;;;;4966611;28;19906;-72
2021/12/23 04:50:14;;;;;;;;;;;-3.40;93.50;;;;;;4966558;28;19906;-72
2021/12/23 04:52:40;;;;;;;;;;;-3.40;93.60;;;;;;4964981;28;19917;-72
2021/12/23 04:55:06;;;;;;;;;;;-3.50;93.80;;;;;;4965026;29;19938;-72
2021/12/23 04:57:32;;;;;;;;;;;-3.50;93.90;;;;;;4965473;29;20201;-72
2021/12/23 04:59:58;;;;;;;;;;;-3.40;93.90;;;;;;4965030;29;19910;-73
2021/12/23 05:02:23;;;;;;;;;;;-3.30;93.60;;;;;;4965059;28;19906;-73
2021/12/23 05:04:52;;;;;;;;;;;-3.30;93.40;;;;;;4948743;29;19910;-73
2021/12/23 05:07:18;;;;;;;;;;;-3.30;93.40;;;;;;4981224;28;19913;-73
2021/12/23 05:09:44;;;;;;;;;;;-3.30;93.40;;;;;;4964795;28;19906;-72
2021/12/23 05:12:10;;;;;;;;;;;-3.40;93.40;;;;;;4966069;28;19907;-73
2021/12/23 05:14:36;;;;;;;;;;;-3.30;93.40;;;;;;4964795;29;19973;-73
2021/12/23 05:17:01;;;;;;;;;;;-3.30;93.40;;;;;;4966114;28;19910;-73
2021/12/23 05:19:27;;;;;;;;;;;-3.40;93.50;;;;;;4964264;28;19985;-73
2021/12/23 05:21:53;;;;;;;;;;;-3.40;93.60;;;;;;4965932;29;19915;-73
2021/12/23 05:24:18;;;;;;;;;;;-3.50;93.60;;;;;;4964239;28;19906;-73
2021/12/23 05:26:44;;;;;;;;;;;-3.50;93.60;;;;;;4963979;28;19985;-73
2021/12/23 05:29:11;;;;;;;;;;;-3.50;93.60;;;;;;4964854;29;19906;-72
2021/12/23 05:31:38;;;;;;;;;;;-3.60;93.80;;;;;;4965112;28;19918;-73
2021/12/23 05:34:05;;;;;;;;;;;-3.60;93.90;;;;;;4964372;28;19923;-73
2021/12/23 05:36:30;;;;;;;;;;;-3.50;93.80;;;;;;4965595;29;19977;-72
2021/12/23 05:38:56;;;;;;;;;;;-3.50;93.70;;;;;;4964514;29;19910;-73
2021/12/23 05:41:26;;;;;;;;;;;-3.50;93.70;;;;;;4964623;29;20197;-72
2021/12/23 05:43:54;;;;;;;;;;;-3.50;93.70;;;;;;4964638;28;19973;-69
2021/12/23 05:46:19;;;;;;;;;;;-3.50;93.70;;;;;;4964644;28;19907;-69
2021/12/23 05:48:45;;;;;;;;;;;-3.50;93.60;;;;;;4973655;28;19912;-73
2021/12/23 05:51:11;;;;;;;;;;;-3.50;93.80;;;;;;4967428;28;19912;-73
2021/12/23 05:53:37;;;;;;;;;;;-3.50;93.80;;;;;;4999565;28;19971;-73
2021/12/23 05:56:03;;;;;;;;;;;-3.40;93.80;;;;;;4983464;28;19921;-73
2021/12/23 05:58:28;;;;;;;;;;;-3.50;93.90;;;;;;4984847;28;19997;-73
2021/12/23 06:00:54;;;;;;;;;;;-3.50;94.10;;;;;;4982505;28;19910;-73
2021/12/23 06:03:20;;;;;;;;;;;-3.50;94.20;;;;;;4963897;28;20244;-73
2021/12/23 06:05:46;;;;;;;;;;;-3.50;94.20;;;;;;4964957;29;19917;-73
2021/12/23 06:08:11;;;;;;;;;;;-3.50;94.10;;;;;;4965309;29;19913;-73
2021/12/23 06:10:37;;;;;;;;;;;-3.40;94.10;;;;;;4965115;29;19981;-73
2021/12/23 06:13:03;;;;;;;;;;;-3.40;94.10;;;;;;4965147;28;20116;-73
2021/12/23 06:15:28;;;;;;;;;;;-3.40;94.00;;;;;;4964932;29;19914;-72
2021/12/23 06:17:54;;;;;;;;;;;-3.40;93.90;;;;;;4963744;29;19906;-70
2021/12/23 06:20:20;;;;;;;;;;;-3.40;94.00;;;;;;4965006;29;20263;-70
2021/12/23 06:22:45;;;;;;;;;;;-3.40;94.20;;;;;;4979482;28;19944;-70
2021/12/23 06:25:12;;;;;;;;;;;-3.40;94.20;;;;;;4979437;28;19910;-71
2021/12/23 06:27:38;;;;;;;;;;;-3.40;94.10;;;;;;4963697;29;20201;-71
2021/12/23 06:30:12;;;;;;;;;;;-3.40;94.10;;;;;;4964562;28;19917;-70
2021/12/23 06:32:38;;;;;;;;;;;-3.30;94.10;;;;;;4943834;28;19914;-70
2021/12/23 06:35:04;;;;;;;;;;;-3.30;94.00;;;;;;4950985;29;20204;-70
2021/12/23 06:37:30;;;;;;;;;;;-3.30;94.00;;;;;;4963722;28;19910;-70
2021/12/23 06:39:55;;;;;;;;;;;-3.30;94.10;;;;;;4963829;28;20296;-71
2021/12/23 06:42:23;;;;;;;;;;;-3.20;94.00;;;;;;4960103;28;19942;-70
2021/12/23 06:44:48;;;;;;;;;;;-3.20;94.20;;;;;;4952028;29;19910;-70
2021/12/23 06:47:14;;;;;;;;;;;-3.20;94.10;;;;;;4963236;29;20224;-71
2021/12/23 06:49:40;;;;;;;;;;;-3.20;94.10;;;;;;4964487;28;19973;-70
2021/12/23 06:52:05;;;;;;;;;;;-3.20;94.10;;;;;;4964414;28;19906;-70
2021/12/23 06:54:31;;;;;;;;;;;-3.20;94.10;;;;;;4964327;28;19906;-71
2021/12/23 06:56:57;;;;;;;;;;;-3.20;94.10;;;;;;4964745;28;19976;-71
2021/12/23 06:59:23;;;;;;;;;;;-3.10;94.10;;;;;;4967880;28;19911;-70
2021/12/23 07:01:49;;;;;;;;;;;-3.20;94.10;;;;;;4967945;28;20004;-71
2021/12/23 07:04:17;;;;;;;;;;;-3.10;94.30;;;;;;4967922;28;19906;-71
2021/12/23 07:06:48;;;;;;;;;;;-3.20;94.20;;;;;;4967358;29;19906;-71
2021/12/23 07:09:14;;;;;;;;;;;-3.20;94.30;;;;;;4968468;28;20228;-71
2021/12/23 07:11:40;;;;;;;;;;;-3.10;94.20;;;;;;4966774;29;20213;-71
2021/12/23 07:14:06;;;;;;;;;;;-3.10;94.20;;;;;;4967842;28;19907;-71
2021/12/23 07:16:32;;;;;;;;;;;-3.10;94.30;;;;;;4968340;28;19969;-71
2021/12/23 07:18:57;;;;;;;;;;;-3.20;94.20;;;;;;4968145;28;19911;-71
2021/12/23 07:21:23;;;;;;;;;;;-3.10;94.30;;;;;;4968375;29;20154;-71
2021/12/23 07:23:49;;;;;;;;;;;-3.20;94.40;;;;;;4968103;28;19977;-71
2021/12/23 07:26:16;;;;;;;;;;;-3.20;94.50;;;;;;4967776;28;19906;-71
2021/12/23 07:28:42;;;;;;;;;;;-3.20;94.60;;;;;;4970688;29;19913;-73
2021/12/23 07:31:08;;;;;;;;;;;-3.20;94.60;;;;;;4969066;29;19913;-74
2021/12/23 07:33:35;;;;;;;;;;;-3.10;94.50;;;;;;4969670;28;19906;-74
2021/12/23 07:36:03;;;;;;;;;;;-3.00;94.40;;;;;;4969602;28;19910;-74
2021/12/23 07:38:29;;;;;;;;;;;-3.00;94.50;;;;;;4958983;28;20739;-70
2021/12/23 07:40:54;;;;;;;;;;;-3.00;94.50;;;;;;4967590;28;19938;-66
2021/12/23 07:46:02;;;;;;;;;;;-3.00;95.70;;;;;;4968743;28;20058;-69
2021/12/23 07:48:27;;;;;;;;;;;-3.00;95.30;;;;;;4967628;29;19906;-68
2021/12/23 07:50:57;;;;;;;;;;;-3.00;94.90;;;;;;4965534;28;19938;-69
2021/12/23 07:53:22;;;;;;;;;;;-2.90;94.90;;;;;;4956525;29;19910;-69
2021/12/23 07:55:48;;;;;;;;;;;-2.90;94.70;;;;;;4967939;28;19977;-69
2021/12/23 07:58:14;;;;;;;;;;;-2.90;94.90;;;;;;4967868;28;19906;-69
2021/12/23 08:00:39;;;;;;;;;;;-2.80;94.50;;;;;;4967245;28;19977;-68
2021/12/23 08:03:05;;;;;;;;;;;-2.80;94.60;;;;;;4966971;28;19906;-69
2021/12/23 08:05:31;;;;;;;;;;;-2.80;94.30;;;;;;4967081;28;19906;-69
2021/12/23 08:07:57;;;;;;;;;;;-2.70;94.30;;;;;;4967460;29;20101;-69
2021/12/23 08:10:23;;;;;;;;;;;-2.70;94.10;;;;;;4966590;28;19945;-69
2021/12/23 08:12:49;;;;;;;;;;;-2.70;93.90;;;;;;4966282;28;19910;-69
2021/12/23 08:15:14;;;;;;;;;;;-2.70;93.90;;;;;;4967268;29;19906;-68
2021/12/23 08:17:40;;;;;;;;;;;-2.70;93.80;;;;;;4966938;29;19914;-69
2021/12/23 08:20:06;;;;;;;;;;;-2.70;93.70;;;;;;4967080;28;19918;-69
2021/12/23 08:22:32;;;;;;;;;;;-2.70;93.70;;;;;;4962913;28;19910;-69
2021/12/23 08:24:58;;;;;;;;;;;-2.60;93.60;;;;;;4957172;28;19906;-69
2021/12/23 08:27:27;;;;;;;;;;;-2.60;93.40;;;;;;4965997;28;19913;-69
2021/12/23 08:29:52;;;;;;;;;;;-2.50;93.30;;;;;;4966761;28;19914;-69
2021/12/23 08:32:19;;;;;;;;;;;-2.60;93.10;;;;;;4966835;28;20245;-68
2021/12/23 08:34:45;;;;;;;;;;;-2.60;93.30;;;;;;4963006;28;19906;-69
2021/12/23 08:37:12;;;;;;;;;;;-2.60;93.30;;;;;;4966038;28;19974;-69
2021/12/23 08:39:41;;;;;;;;;;;-2.40;93.30;;;;;;4966816;28;19915;-69
2021/12/23 08:42:07;;;;;;;;;;;-2.30;93.00;;;;;;4966420;28;20201;-69
2021/12/23 08:44:33;;;;;;;;;;;-2.40;93.10;;;;;;4966741;28;19910;-69
2021/12/23 08:46:59;;;;;;;;;;;-2.30;92.90;;;;;;4966128;29;19913;-69
2021/12/23 08:49:25;;;;;;;;;;;-2.20;93.00;;;;;;4966217;29;19973;-69
2021/12/23 08:51:51;;;;;;;;;;;-2.00;92.70;;;;;;4966710;28;19907;-69
2021/12/23 08:54:16;;;;;;;;;;;-2.00;91.90;;;;;;4994276;23;19918;-68
2021/12/23 08:56:42;;;;;;;;;;;-2.00;92.00;;;;;;4980085;28;19973;-68
2021/12/23 08:59:08;;;;;;;;;;;-1.90;91.60;;;;;;4985286;28;19910;-69
2021/12/23 09:01:34;;;;;;;;;;;-1.80;91.60;;;;;;4984125;28;19930;-69
2021/12/23 09:03:59;;;;;;;;;;;-1.90;91.80;;;;;;4984375;28;19964;-69
2021/12/23 09:06:25;;;;;;;;;;;-1.80;91.60;;;;;;4967667;28;19948;-71
2021/12/23 09:08:53;;;;;;;;;;;-1.90;91.50;;;;;;4955265;29;19906;-69
2021/12/23 09:11:18;;;;;;;;;;;-1.80;91.50;;;;;;4945430;29;19910;-70
2021/12/23 09:13:44;;;;;;;;;;;-1.80;91.50;;;;;;4946692;29;19907;-69
2021/12/23 09:16:10;;;;;;;;;;;-1.80;91.60;;;;;;4946437;29;19979;-69
2021/12/23 09:18:35;;;;;;;;;;;-1.80;91.50;;;;;;4946553;29;19938;-69
2021/12/23 09:21:01;;;;;;;;;;;-1.80;91.40;;;;;;4945504;29;19907;-69
2021/12/23 09:23:27;;;;;;;;;;;-1.80;91.60;;;;;;4951645;29;20028;-69
2021/12/23 09:25:54;;;;;;;;;;;-1.80;91.60;;;;;;4963827;28;20062;-70
2021/12/23 09:28:29;;;;;;;;;;;-1.70;91.50;;;;;;4965480;28;19906;-76
2021/12/23 09:33:39;;;;;;;;;;;-1.60;91.50;;;;;;4951025;29;19930;-72
2021/12/23 09:36:05;;;;;;;;;;;-1.60;91.40;;;;;;4960100;28;19906;-73
2021/12/23 09:38:31;;;;;;;;;;;-1.50;91.30;;;;;;4940406;29;19907;-72
2021/12/23 09:41:08;;;;;;;;;;;-1.40;91.20;;;;;;4944884;29;19906;-75
2021/12/23 09:43:36;;;;;;;;;;;-1.40;91.10;;;;;;4930538;29;19907;-72
2021/12/23 09:46:03;;;;;;;;;;;-1.40;90.90;;;;;;4929299;29;19938;-75
2021/12/23 09:48:29;;;;;;;;;;;-1.30;90.90;;;;;;4929250;29;19990;-77
2021/12/23 09:50:55;;;;;;;;;;;-1.30;90.70;;;;;;4937762;29;19914;-72
2021/12/23 09:53:21;;;;;;;;;;;-1.20;90.80;;;;;;4950248;28;19964;-69
2021/12/23 09:55:47;;;;;;;;;;;-1.10;91.00;;;;;;4964691;28;20113;-70
2021/12/23 09:58:13;;;;;;;;;;;-0.90;90.30;;;;;;4948035;29;19906;-68
2021/12/23 10:00:41;;;;;;;;;;;-0.90;90.20;;;;;;4963596;28;19981;-68
2021/12/23 10:03:07;;;;;;;;;;;-0.90;90.00;;;;;;4963782;29;19973;-68
2021/12/23 10:05:34;;;;;;;;;;;-0.80;90.10;;;;;;4965049;28;19907;-68
2021/12/23 10:08:00;;;;;;;;;;;-0.80;90.10;;;;;;4966856;28;19953;-71
2021/12/23 10:10:36;;;;;;;;;;;-0.70;89.80;;;;;;4966469;28;20201;-71
2021/12/23 10:32:50;;;;;;;;;;;-0.70;90.20;;;;;;4963477;29;19913;-70
2021/12/23 10:38:09;;;;;;;;;;;-0.70;90.40;;;;;;4962379;28;19913;-69
2021/12/23 10:40:35;;;;;;;;;;;-0.60;90.70;;;;;;4962733;29;19933;-69
2021/12/23 10:43:00;;;;;;;;;;;-0.60;90.40;;;;;;4964602;28;20261;-69
2021/12/23 10:45:39;;;;;;;;;;;-0.70;90.40;;;;;;4963967;28;19921;-69
2021/12/23 10:48:10;;;;;;;;;;;-0.70;90.60;;;;;;4963626;28;20137;-78
2021/12/23 10:50:44;;;;;;;;;;;-0.70;90.50;;;;;;4944641;28;20194;-78
2021/12/23 10:53:48;;;;;;;;;;;-0.70;90.70;;;;;;4950559;28;19923;-77
2021/12/23 10:59:26;;;;;;;;;;;-0.60;90.60;;;;;;4944991;29;20224;-70
2021/12/23 11:02:24;;;;;;;;;;;-0.60;90.70;;;;;;4943954;29;19974;-69
2021/12/23 11:05:09;;;;;;;;;;;-0.70;90.80;;;;;;4944884;29;19912;-69
2021/12/23 11:07:48;;;;;;;;;;;-0.70;90.90;;;;;;4943512;29;19957;-70
2021/12/23 11:10:22;;;;;;;;;;;-0.70;91.10;;;;;;4962922;28;20203;-69
2021/12/23 11:37:42;;;;;;;;;;;-0.30;90.80;;;;;;4945006;29;19982;-70
2021/12/23 11:40:54;;;;;;;;;;;-0.20;90.90;;;;;;4960151;28;19910;-70
2021/12/23 11:45:33;;;;;;;;;;;-0.20;90.40;;;;;;4949979;29;20189;-70
2021/12/23 11:47:59;;;;;;;;;;;-0.10;90.50;;;;;;4967349;28;19976;-71
2021/12/23 11:50:32;;;;;;;;;;;0.00;90.40;;;;;;4966195;29;19906;-70
2021/12/23 11:52:58;;;;;;;;;;;0.00;90.30;;;;;;4947752;28;19942;-70
2021/12/23 11:55:25;;;;;;;;;;;0.10;90.20;;;;;;4949851;28;19906;-73
2021/12/23 11:57:52;;;;;;;;;;;0.10;90.10;;;;;;4955373;29;19911;-73
2021/12/23 12:00:32;;;;;;;;;;;0.10;90.10;;;;;;4946610;28;20005;-72
2021/12/23 12:03:02;;;;;;;;;;;0.20;90.10;;;;;;4947816;29;19907;-72
2021/12/23 12:05:29;;;;;;;;;;;0.20;90.10;;;;;;4962592;28;19913;-77
2021/12/23 12:08:11;;;;;;;;;;;0.30;89.90;;;;;;4947867;28;19907;-71
2021/12/23 12:10:37;;;;;;;;;;;0.30;89.50;;;;;;4956964;29;20260;-74
2021/12/23 12:13:07;;;;;;;;;;;0.40;89.60;;;;;;4950115;28;20120;-73
2021/12/23 12:15:53;;;;;;;;;;;0.40;90.00;;;;;;4950000;29;19977;-74
2021/12/23 12:18:21;;;;;;;;;;;0.40;90.00;;;;;;4965534;29;19933;-72
2021/12/23 12:20:52;;;;;;;;;;;0.50;89.50;;;;;;4965604;28;20086;-73
2021/12/23 12:23:37;;;;;;;;;;;0.50;89.40;;;;;;4965522;29;19906;-72
2021/12/23 12:26:10;;;;;;;;;;;0.50;88.60;;;;;;4964001;28;19906;-72
2021/12/23 12:28:55;;;;;;;;;;;0.40;89.30;;;;;;4961666;28;19914;-72
2021/12/23 12:31:25;;;;;;;;;;;0.50;89.40;;;;;;4965715;28;20141;-74
2021/12/23 12:34:07;;;;;;;;;;;0.50;89.50;;;;;;4949908;29;19988;-72
2021/12/23 12:36:44;;;;;;;;;;;0.60;89.00;;;;;;4966673;29;19906;-74
2021/12/23 12:39:10;;;;;;;;;;;0.60;89.20;;;;;;4949193;29;19918;-69
2021/12/23 12:41:37;;;;;;;;;;;0.60;88.90;;;;;;4966220;28;19906;-68
2021/12/23 12:44:31;;;;;;;;;;;0.60;88.70;;;;;;4966426;29;19906;-69
2021/12/23 12:49:33;;;;;;;;;;;0.70;89.30;;;;;;4949417;29;19971;-76
2021/12/23 12:52:18;;;;;;;;;;;0.70;89.00;;;;;;4964742;29;19906;-74
2021/12/23 12:54:56;;;;;;;;;;;0.70;88.50;;;;;;4965848;28;19910;-77
2021/12/23 12:57:32;;;;;;;;;;;0.70;89.30;;;;;;4957447;28;19910;-74
2021/12/23 13:00:00;;;;;;;;;;;0.70;89.20;;;;;;4951254;29;19911;-76
2021/12/23 13:02:29;;;;;;;;;;;0.80;88.90;;;;;;4961287;28;19930;-75
2021/12/23 13:05:02;;;;;;;;;;;0.80;89.60;;;;;;4961726;28;20198;-70
2021/12/23 13:07:30;;;;;;;;;;;0.70;89.40;;;;;;4946853;29;19914;-75
2021/12/23 13:10:03;;;;;;;;;;;0.80;89.10;;;;;;4961457;28;19950;-70
2021/12/23 13:12:35;;;;;;;;;;;0.70;89.70;;;;;;4960369;29;20275;-74
2021/12/23 13:15:18;;;;;;;;;;;0.70;89.50;;;;;;4961105;29;19907;-71
2021/12/23 13:18:23;;;;;;;;;;;0.70;89.70;;;;;;4945101;29;20213;-72
2021/12/23 13:21:04;;;;;;;;;;;0.70;89.50;;;;;;4946497;29;20109;-72
2021/12/23 13:23:40;;;;;;;;;;;0.70;89.70;;;;;;4930437;29;19973;-72
2021/12/23 13:26:10;;;;;;;;;;;0.90;89.20;;;;;;4930870;29;20142;-72
2021/12/23 13:28:51;;;;;;;;;;;0.90;89.00;;;;;;4949599;28;19907;-72
2021/12/23 13:31:22;;;;;;;;;;;0.90;89.00;;;;;;4946377;29;19913;-72
2021/12/23 13:33:49;;;;;;;;;;;0.90;89.00;;;;;;4948465;29;19953;-72
2021/12/23 13:36:31;;;;;;;;;;;0.90;89.30;;;;;;4948331;29;19906;-72
2021/12/23 13:39:07;;;;;;;;;;;0.90;89.40;;;;;;4964399;29;20193;-72
2021/12/23 13:41:38;;;;;;;;;;;0.90;89.60;;;;;;4961903;28;19953;-72
2021/12/23 13:44:15;;;;;;;;;;;0.90;89.50;;;;;;4967605;28;19906;-72
2021/12/23 13:46:42;;;;;;;;;;;0.90;89.80;;;;;;4965446;28;19910;-72
2021/12/23 13:49:08;;;;;;;;;;;0.90;89.90;;;;;;4958898;28;19938;-72
2021/12/23 13:51:35;;;;;;;;;;;0.90;89.90;;;;;;4953412;29;19954;-72
2021/12/23 13:54:07;;;;;;;;;;;0.90;89.90;;;;;;4960452;28;19917;-71
2021/12/23 13:56:33;;;;;;;;;;;0.90;90.10;;;;;;4960629;29;19965;-73
2021/12/23 13:59:12;;;;;;;;;;;0.90;90.10;;;;;;4960435;29;19941;-70
2021/12/23 14:01:58;;;;;;;;;;;0.90;90.20;;;;;;4960057;28;19946;-70
2021/12/23 14:04:47;;;;;;;;;;;0.90;90.20;;;;;;4945365;29;19913;-70
2021/12/23 14:07:18;;;;;;;;;;;1.00;90.20;;;;;;4959036;29;19977;-70
2021/12/23 14:09:45;;;;;;;;;;;1.00;90.20;;;;;;4945575;29;19906;-68
2021/12/23 14:12:13;;;;;;;;;;;0.90;90.40;;;;;;4961016;28;19938;-69
2021/12/23 14:14:54;;;;;;;;;;;1.00;90.50;;;;;;4964561;28;19906;-69
2021/12/23 14:17:43;;;;;;;;;;;0.90;90.60;;;;;;4963849;29;19910;-68
2021/12/23 14:23:16;;;;;;;;;;;0.90;90.70;;;;;;4964272;29;19953;-67
2021/12/23 14:25:59;;;;;;;;;;;1.00;90.60;;;;;;4936202;29;19913;-69
2021/12/23 14:28:27;;;;;;;;;;;1.00;90.60;;;;;;4948057;29;19906;-69
2021/12/23 14:31:01;;;;;;;;;;;1.00;90.50;;;;;;4963157;29;20248;-71
2021/12/23 14:33:30;;;;;;;;;;;1.00;90.60;;;;;;4963397;29;19906;-71
2021/12/23 14:36:04;;;;;;;;;;;0.90;90.80;;;;;;4963032;28;19907;-71
2021/12/23 14:38:32;;;;;;;;;;;1.00;90.90;;;;;;4963185;29;19906;-68
2021/12/23 14:41:16;;;;;;;;;;;1.10;90.70;;;;;;4964398;28;20001;-67
2021/12/23 14:43:49;;;;;;;;;;;1.10;90.60;;;;;;4964127;28;20112;-70
2021/12/23 14:46:15;;;;;;;;;;;1.10;90.80;;;;;;4963243;29;19981;-68
2021/12/23 14:51:34;;;;;;;;;;;1.10;90.60;;;;;;4956168;28;19929;-70
2021/12/23 14:54:07;;;;;;;;;;;1.10;90.60;;;;;;4962233;28;19925;-67
2021/12/23 14:56:33;;;;;;;;;;;1.10;90.60;;;;;;4964165;28;20120;-68
2021/12/23 14:59:07;;;;;;;;;;;1.10;90.70;;;;;;4964267;29;19911;-68
2021/12/23 15:01:34;;;;;;;;;;;1.20;90.50;;;;;;4963276;29;19969;-72
2021/12/23 15:04:04;;;;;;;;;;;1.10;90.60;;;;;;4947307;29;19910;-71
2021/12/23 15:06:30;;;;;;;;;;;1.20;90.60;;;;;;4964137;28;19929;-72
2021/12/23 15:08:56;;;;;;;;;;;1.20;90.40;;;;;;4963040;28;19906;-68
2021/12/23 15:11:29;;;;;;;;;;;1.10;90.40;;;;;;4964625;28;19913;-68
2021/12/23 15:13:55;;;;;;;;;;;1.20;90.40;;;;;;4954245;28;19906;-67
2021/12/23 15:16:27;;;;;;;;;;;1.10;90.70;;;;;;4960575;28;19921;-69
2021/12/23 15:19:11;;;;;;;;;;;1.10;90.70;;;;;;4961787;28;20042;-68
2021/12/23 15:21:44;;;;;;;;;;;1.20;90.70;;;;;;4979134;23;19918;-69
2021/12/23 15:24:16;;;;;;;;;;;1.20;90.80;;;;;;4941897;29;20228;-69
2021/12/23 15:26:56;;;;;;;;;;;1.10;90.80;;;;;;4959175;28;19926;-72
2021/12/23 15:29:30;;;;;;;;;;;1.10;90.80;;;;;;4966053;29;19957;-72
2021/12/23 15:31:57;;;;;;;;;;;1.20;90.80;;;;;;4982807;28;20082;-72
2021/12/23 15:34:23;;;;;;;;;;;1.10;90.80;;;;;;4966135;28;19906;-73
2021/12/23 15:36:49;;;;;;;;;;;1.20;90.90;;;;;;4950620;29;19913;-73
2021/12/23 15:39:32;;;;;;;;;;;1.20;90.90;;;;;;4967760;28;19910;-73
2021/12/23 15:41:58;;;;;;;;;;;1.20;91.00;;;;;;4980685;28;20173;-73
2021/12/23 15:44:24;;;;;;;;;;;1.10;91.00;;;;;;4989757;28;20108;-70